Weather observations for the past three days for
Cold Bay, Cold Bay Airport
| Date | Time (akdt) | Wind (mph) | Vis. (mi.) | Weather | Sky Cond. | Temperature (ºF) | Relative Humidity | Wind Chill (°F) | Heat Index (°F) | Pressure | Precipitation (in) | ||||||
|---|---|---|---|---|---|---|---|---|---|---|---|---|---|---|---|---|---|
| Air | Dwpt | 6 hour | altimeter (in) | sea level (mb) | 1 hr | 3 hr | 6 hr | ||||||||||
| Max. | Min. | ||||||||||||||||
| 08 | 07:53 | NW 12 | 10.00 | Overcast | OVC007 | 30 | 27 | 88% | 21 | 29.79 | 1008.7 | ||||||
| 08 | 06:53 | N 6 | 10.00 | Overcast | OVC006 | 28.9 | 28 | 96% | 23 | 29.8 | 1009.1 | ||||||
| 08 | 05:53 | N 8 | 10.00 | Overcast | OVC005 | 28.9 | 27 | 92% | 22 | 29.81 | 1009.4 | ||||||
| 08 | 04:53 | N 10 | 10.00 | Overcast | OVC004 | 28.9 | 27 | 92% | 20 | 29.82 | 1009.8 | ||||||
| 08 | 03:53 | N 9 | 10.00 | Overcast | OVC004 | 28.9 | 28 | 30.9 | 28.9 | 96% | 21 | 29.83 | 1010.2 | ||||
| 08 | 02:53 | N 9 | 10.00 | Overcast | OVC005 | 28.9 | 27 | 92% | 21 | 29.85 | 1010.8 | ||||||
| 08 | 01:53 | NW 10 | 10.00 | Overcast | OVC005 | 28.9 | 27 | 92% | 20 | 29.86 | 1011.1 | ||||||
| 08 | 00:53 | N 12 | 10.00 | Overcast | OVC005 | 28.9 | 27 | 92% | 20 | 29.86 | 1011.1 | ||||||
| 07 | 23:53 | N 10 | 10.00 | Overcast | OVC004 | 28.9 | 27 | 92% | 20 | 29.87 | 1011.7 | ||||||
| 07 | 22:53 | NW 8 | 10.00 | Overcast | OVC003 | 30 | 28 | 92% | 23 | 29.87 | 1011.7 | ||||||
| 07 | 21:53 | NW 10 | 10.00 | Overcast | OVC004 | 30.9 | 28.9 | 44.1 | 30.9 | 92% | 23 | 29.87 | 1011.5 | ||||
| 07 | 20:53 | N 13 | 10.00 | Overcast | OVC007 | 33.1 | 30 | 89% | 25 | 29.87 | 1011.6 | ||||||
| 07 | 19:53 | N 12 | 10.00 | Partly Cloudy | SCT009 | 36 | 30 | 79% | 29 | 29.87 | 1011.6 | ||||||
| 07 | 18:53 | N 13 | 10.00 | Fair | CLR | 41 | 32 | 70% | 34 | 29.87 | 1011.8 | ||||||
| 07 | 17:53 | N 16 | 10.00 | Fair | CLR | 42.1 | 32 | 68% | 35 | 29.88 | 1012.1 | ||||||
| 07 | 16:53 | NW 15 G 22 | 10.00 | Fair | CLR | 43 | 30.9 | 63% | 36 | 29.9 | 1012.6 | ||||||
| 07 | 08:53 | NE 10 | 2.50 | Fog/Mist | SCT003 OVC010 | 30.9 | 28.9 | 92% | 23 | 29.98 | 1015.3 | ||||||
| 07 | 07:53 | SE 3 | 10.00 | Fair | CLR | 30 | 27 | 88% | 29.98 | 1015.2 | |||||||
| 07 | 06:53 | E 6 | 10.00 | Fair | CLR | 28 | 26.1 | 92% | 22 | 29.98 | 1015.4 | ||||||
| 07 | 05:53 | SE 9 | 10.00 | A Few Clouds | FEW019 | 28.9 | 25 | 85% | 21 | 29.98 | 1015.5 | ||||||
| 07 | 04:53 | SE 10 | 10.00 | Fair | CLR | 27 | 24.1 | 89% | 18 | 29.99 | 1015.6 | ||||||
| 07 | 03:53 | SE 8 | 10.00 | Fair | CLR | 27 | 24.1 | 34 | 27 | 89% | 19 | 30 | 1016.1 | ||||
| 07 | 02:53 | S 12 | 10.00 | Fair | CLR | 28.9 | 25 | 85% | 20 | 30.02 | 1016.6 | ||||||
| 07 | 01:53 | SE 9 | 10.00 | Fair | CLR | 28 | 25 | 88% | 20 | 30.03 | 1016.9 | ||||||
| 07 | 00:53 | SE 12 | 10.00 | Fair | CLR | 30 | 25 | 82% | 21 | 30.03 | 1017.1 | ||||||
| 06 | 23:53 | S 10 | 10.00 | Fair | CLR | 30 | 26.1 | 85% | 22 | 30.03 | 1017.1 | ||||||
| 06 | 22:53 | SE 10 | 10.00 | Fair | CLR | 30.9 | 26.1 | 82% | 23 | 30.03 | 1017.2 | ||||||
| 06 | 21:53 | SE 9 | 10.00 | Fair | CLR | 34 | 27 | 41 | 34 | 76% | 27 | 30.03 | 1017.0 | ||||
| 06 | 20:53 | SE 12 | 10.00 | Fair | CLR | 37.9 | 28 | 68% | 31 | 30.03 | 1017.0 | ||||||
| 06 | 19:53 | SE 9 | 10.00 | Fair | CLR | 41 | 28.9 | 62% | 36 | 30.03 | 1016.9 | ||||||
| 06 | 18:53 | E 9 | 10.00 | Fair | CLR | 39 | 28.9 | 67% | 33 | 30.03 | 1017.0 | ||||||
| 06 | 17:53 | NE 9 | 10.00 | Fair | CLR | 39 | 28.9 | 67% | 33 | 30.04 | 1017.4 | ||||||
| 06 | 16:53 | NE 9 | 10.00 | Fair | CLR | 39.9 | 28.9 | 65% | 34 | 30.06 | 1018.0 | ||||||
| 06 | 14:53 | NE 7 | 10.00 | Fair | CLR | 36 | 27 | 70% | 31 | 30.08 | 1018.7 | ||||||
| 06 | 13:53 | E 7 | 10.00 | Fair | CLR | 35.1 | 26.1 | 70% | 30 | 30.09 | 1019.1 | ||||||
| 06 | 12:53 | E 5 | 10.00 | A Few Clouds | FEW016 | 33.1 | 25 | 72% | 29 | 30.11 | 1019.9 | ||||||
| 06 | 11:53 | E 6 | 10.00 | Partly Cloudy | SCT014 | 32 | 25 | 75% | 27 | 30.11 | 1019.8 | ||||||
| 06 | 10:53 | NE 9 | 10.00 | Overcast | OVC013 | 30 | 24.1 | 79% | 22 | 30.11 | 1019.6 | ||||||
| 06 | 09:53 | Calm | 10.00 | Overcast | OVC012 | 28.9 | 23 | 28.9 | 28 | 78% | 30.12 | 1020.0 | |||||
| 05 | 16:53 | NW 14 | 10.00 | Overcast | BKN014 OVC019 | 34 | 28 | 79% | 25 | 30.08 | 1018.7 | ||||||
| 05 | 15:53 | NW 16 | 10.00 | Overcast | OVC017 | 33.1 | 27 | 34 | 30 | 78% | 23 | 30.08 | 1018.7 | ||||
| 05 | 14:53 | NW 14 | 10.00 | Overcast | OVC020 | 34 | 26.1 | 73% | 25 | 30.08 | 1018.6 | ||||||
| 05 | 13:53 | NW 17 | 10.00 | Overcast | OVC016 | 30.9 | 25 | 79% | 20 | 30.07 | 1018.4 | ||||||
| 05 | 12:53 | NW 18 | 10.00 | Overcast | OVC017 | 30.9 | 25 | 79% | 20 | 30.06 | 1018.0 | ||||||
| 05 | 11:53 | NW 16 | 10.00 | Overcast | OVC018 | 30.9 | 24.1 | 76% | 21 | 30.05 | 1017.6 | ||||||
| 05 | 10:53 | NW 18 G 26 | 10.00 | Overcast | OVC018 | 30.9 | 24.1 | 76% | 20 | 30.02 | 1016.8 | ||||||
| 05 | 09:53 | NW 18 | 10.00 | Overcast | OVC017 | 30 | 25 | 30.9 | 30 | 82% | 19 | 30.02 | 1016.5 | ||||
| 05 | 08:53 | NW 21 G 31 | 10.00 | Overcast and Breezy | OVC017 | 30 | 24.1 | 79% | 18 | 30 | 1015.9 | ||||||
| Date | Time (akdt) | Wind (mph) | Vis. (mi.) | Weather | Sky Cond. | Air | Dwpt | Max. | Min. | Relative Humidity | Wind Chill (°F) | Heat Index (°F) | altimeter (in) | sea level (mb) | 1 hr | 3 hr | 6 hr |
| 6 hour | |||||||||||||||||
| Temperature (ºF) | Pressure | Precipitation (in) | |||||||||||||||